createdAt,value
2017-12-28T00:02:01.521Z,3.85
2017-12-28T00:04:27.742Z,4.05
2017-12-28T00:06:54.729Z,3.50
2017-12-28T00:09:20.980Z,3.35
2017-12-28T00:11:47.246Z,2.78
2017-12-28T00:14:13.470Z,2.95
2017-12-28T00:16:39.769Z,4.20
2017-12-28T00:19:06.864Z,3.30
2017-12-28T00:21:33.848Z,2.85
2017-12-28T00:24:00.092Z,4.87
2017-12-28T00:26:26.455Z,3.10
2017-12-28T00:28:52.732Z,3.67
2017-12-28T00:31:19.761Z,2.67
2017-12-28T00:33:46.016Z,2.28
2017-12-28T00:36:12.233Z,2.10
2017-12-28T00:38:38.473Z,1.70
2017-12-28T00:41:05.056Z,1.75
2017-12-28T00:43:31.385Z,1.75
2017-12-28T00:45:57.612Z,1.95
2017-12-28T00:48:24.220Z,2.75
2017-12-28T00:50:50.532Z,2.20
2017-12-28T00:53:16.788Z,1.75
2017-12-28T00:55:43.889Z,2.25
2017-12-28T00:58:10.105Z,1.60
2017-12-28T01:00:36.404Z,1.58
2017-12-28T01:03:03.380Z,1.55
2017-12-28T01:05:30.356Z,1.45
2017-12-28T01:07:56.601Z,1.65
2017-12-28T01:10:22.866Z,2.50
2017-12-28T01:12:49.098Z,2.08
2017-12-28T01:15:15.337Z,1.70
2017-12-28T01:17:41.610Z,1.55
2017-12-28T01:20:07.986Z,1.77
2017-12-28T01:22:34.988Z,1.55
2017-12-28T01:25:01.238Z,1.60
2017-12-28T01:27:28.224Z,2.12
2017-12-28T01:29:54.657Z,2.20
2017-12-28T01:32:22.435Z,2.50
2017-12-28T01:34:49.429Z,1.73
2017-12-28T01:37:15.668Z,2.58
2017-12-28T01:39:42.639Z,2.00
2017-12-28T01:42:08.898Z,2.12
2017-12-28T01:44:35.185Z,1.90
2017-12-28T01:47:01.428Z,2.47
2017-12-28T01:49:27.701Z,1.20
2017-12-28T01:51:53.961Z,1.52
2017-12-28T01:54:20.181Z,1.40
2017-12-28T01:56:47.132Z,2.28
2017-12-28T01:59:14.138Z,1.37
2017-12-28T02:01:40.343Z,2.30
2017-12-28T02:04:08.628Z,1.67
2017-12-28T02:06:34.929Z,1.70
2017-12-28T02:09:01.966Z,1.50
2017-12-28T02:11:28.213Z,2.70
2017-12-28T02:13:54.430Z,1.62
2017-12-28T02:16:20.677Z,1.85
2017-12-28T02:18:46.904Z,2.03
2017-12-28T02:21:13.858Z,2.70
2017-12-28T02:23:40.089Z,2.95
2017-12-28T02:26:06.321Z,2.50
2017-12-28T02:28:33.317Z,3.00
2017-12-28T02:30:59.570Z,2.53
2017-12-28T02:33:26.581Z,3.05
2017-12-28T02:35:53.665Z,2.95
2017-12-28T02:38:19.896Z,3.00
2017-12-28T02:40:46.142Z,3.15
2017-12-28T02:43:12.869Z,3.37
2017-12-28T02:45:39.848Z,2.80
2017-12-28T02:48:06.109Z,3.62
2017-12-28T02:50:32.370Z,3.33
2017-12-28T02:52:58.631Z,3.33
2017-12-28T02:55:25.632Z,2.90
2017-12-28T02:57:52.649Z,4.00
2017-12-28T03:00:19.668Z,3.60
2017-12-28T03:02:45.829Z,4.12
2017-12-28T03:05:12.077Z,5.22
2017-12-28T03:07:38.329Z,3.70
2017-12-28T03:10:05.319Z,3.15
2017-12-28T03:12:31.534Z,4.87
2017-12-28T03:14:57.744Z,3.80
2017-12-28T03:17:23.968Z,4.12
2017-12-28T03:19:50.185Z,4.00
2017-12-28T03:22:16.420Z,3.85
2017-12-28T03:24:42.738Z,3.08
2017-12-28T03:27:09.717Z,4.07
2017-12-28T03:29:35.972Z,4.12
2017-12-28T03:32:02.233Z,4.07
2017-12-28T03:34:28.461Z,4.45
2017-12-28T03:36:54.702Z,3.75
2017-12-28T03:39:20.919Z,3.97
2017-12-28T03:41:47.156Z,3.97
2017-12-28T03:44:13.449Z,4.50
2017-12-28T03:46:39.688Z,4.78
2017-12-28T03:49:05.920Z,5.55
2017-12-28T03:51:32.895Z,4.15
2017-12-28T03:53:59.112Z,5.80
2017-12-28T03:56:25.329Z,4.10
2017-12-28T03:58:51.576Z,5.93
2017-12-28T04:01:17.816Z,4.80
2017-12-28T04:03:44.129Z,4.50
2017-12-28T04:06:11.104Z,4.43
2017-12-28T04:08:38.061Z,3.67
2017-12-28T04:11:05.042Z,3.90
2017-12-28T04:13:31.297Z,3.92
2017-12-28T04:15:57.550Z,4.35
2017-12-28T04:18:23.845Z,4.28
2017-12-28T04:20:50.817Z,3.97
2017-12-28T04:23:17.232Z,4.53
2017-12-28T04:25:44.251Z,6.55
2017-12-28T04:28:10.548Z,3.42
2017-12-28T04:30:36.796Z,3.97
2017-12-28T04:33:03.038Z,3.87
2017-12-28T04:35:29.277Z,3.90
2017-12-28T04:37:55.536Z,3.97
2017-12-28T04:40:21.780Z,4.20
2017-12-28T04:42:47.999Z,3.90
2017-12-28T04:45:14.258Z,4.03
2017-12-28T04:47:40.480Z,4.87
2017-12-28T04:50:06.737Z,4.70
2017-12-28T04:52:32.969Z,5.07
2017-12-28T04:54:59.216Z,4.55
2017-12-28T04:57:25.466Z,4.32
2017-12-28T04:59:51.697Z,3.40
2017-12-28T05:02:17.966Z,3.85
2017-12-28T05:04:44.209Z,3.97
2017-12-28T05:07:10.451Z,3.70
2017-12-28T05:09:36.676Z,4.00
2017-12-28T05:12:02.916Z,3.25
2017-12-28T05:14:29.157Z,3.67
2017-12-28T05:16:55.361Z,3.87
2017-12-28T05:19:21.624Z,4.10
2017-12-28T05:21:47.854Z,3.45
2017-12-28T05:24:14.092Z,3.35
2017-12-28T05:26:40.329Z,4.10
2017-12-28T05:29:07.380Z,3.78
2017-12-28T05:31:33.590Z,3.08
2017-12-28T05:33:59.885Z,2.87
2017-12-28T05:36:26.149Z,2.78
2017-12-28T05:38:52.444Z,3.03
2017-12-28T05:41:18.643Z,3.10
2017-12-28T05:46:06.251Z,2.70
2017-12-28T05:48:33.249Z,3.00
2017-12-28T05:50:59.497Z,3.20
2017-12-28T05:53:25.761Z,2.97
2017-12-28T05:55:52.006Z,3.35
2017-12-28T05:58:18.240Z,3.22
2017-12-28T06:00:44.518Z,2.80
2017-12-28T06:03:11.569Z,2.90
2017-12-28T06:05:38.573Z,2.70
2017-12-28T06:08:04.812Z,3.90
2017-12-28T06:10:31.033Z,3.40
2017-12-28T06:12:57.293Z,3.42
2017-12-28T06:15:23.558Z,3.25
2017-12-28T06:17:49.805Z,3.90
2017-12-28T06:20:16.045Z,5.72
2017-12-28T06:22:42.289Z,3.85
2017-12-28T06:25:08.549Z,3.85
2017-12-28T06:27:35.723Z,3.67
2017-12-28T06:30:01.973Z,4.07
2017-12-28T06:32:28.192Z,3.80
2017-12-28T06:34:55.182Z,4.47
2017-12-28T06:37:21.389Z,4.12
2017-12-28T06:39:48.449Z,4.43
2017-12-28T06:42:14.685Z,4.03
2017-12-28T06:44:40.892Z,4.35
2017-12-28T06:47:07.193Z,4.60
2017-12-28T06:49:34.501Z,3.35
2017-12-28T06:52:00.725Z,4.40
2017-12-28T06:54:27.186Z,4.18
2017-12-28T06:56:53.461Z,3.72
2017-12-28T06:59:20.504Z,4.28
2017-12-28T07:01:46.740Z,3.90
2017-12-28T07:04:12.978Z,5.40
2017-12-28T07:06:39.212Z,3.35
2017-12-28T07:09:05.632Z,4.03
2017-12-28T07:11:31.902Z,4.37
2017-12-28T07:13:58.180Z,4.22
2017-12-28T07:16:24.397Z,5.72
2017-12-28T07:18:50.644Z,4.75
2017-12-28T07:21:16.864Z,4.40
2017-12-28T07:23:43.090Z,5.00
2017-12-28T07:26:09.321Z,4.57
2017-12-28T07:28:35.565Z,4.37
2017-12-28T07:31:02.736Z,4.22
2017-12-28T07:33:28.984Z,4.10
2017-12-28T07:35:55.213Z,4.35
2017-12-28T07:38:21.451Z,4.60
2017-12-28T07:40:47.682Z,5.53
2017-12-28T07:43:14.661Z,4.35
2017-12-28T07:45:40.974Z,4.65
2017-12-28T07:48:07.469Z,4.47
2017-12-28T07:50:33.706Z,5.57
2017-12-28T07:52:59.922Z,3.90
2017-12-28T07:55:26.125Z,3.70
2017-12-28T07:57:52.337Z,5.00
2017-12-28T08:00:19.534Z,3.80
2017-12-28T08:02:46.550Z,4.00
2017-12-28T08:05:13.716Z,5.15
2017-12-28T08:07:39.917Z,4.53
2017-12-28T08:10:06.201Z,6.50
2017-12-28T08:12:32.457Z,5.85
2017-12-28T08:14:58.682Z,7.72
2017-12-28T08:17:24.914Z,5.87
2017-12-28T08:19:51.181Z,7.40
2017-12-28T08:22:17.444Z,6.22
2017-12-28T08:24:43.758Z,6.68
2017-12-28T08:27:10.020Z,7.50
2017-12-28T08:29:36.389Z,7.68
2017-12-28T08:32:02.677Z,12.48
2017-12-28T08:34:28.977Z,9.38
2017-12-28T08:36:55.184Z,10.15
2017-12-28T08:39:21.552Z,9.27
2017-12-28T08:41:47.828Z,9.48
2017-12-28T08:44:14.849Z,9.95
2017-12-28T08:46:41.052Z,10.82
2017-12-28T08:49:08.065Z,11.73
2017-12-28T08:51:34.302Z,10.30
2017-12-28T08:54:00.541Z,10.77
2017-12-28T08:56:27.587Z,12.55
2017-12-28T08:58:53.805Z,12.43
2017-12-28T09:01:20.784Z,12.55
2017-12-28T09:03:47.191Z,11.00
2017-12-28T09:06:16.322Z,11.70
2017-12-28T09:08:43.397Z,11.60
2017-12-28T09:11:10.922Z,10.18
2017-12-28T09:13:37.163Z,10.20
2017-12-28T09:16:03.428Z,9.73
2017-12-28T09:18:29.656Z,11.02
2017-12-28T09:20:55.873Z,9.27
2017-12-28T09:23:22.268Z,10.63
2017-12-28T09:25:49.232Z,10.52
2017-12-28T09:28:17.795Z,11.82
2017-12-28T09:30:44.021Z,10.25
2017-12-28T09:33:10.244Z,11.30
2017-12-28T09:35:36.644Z,9.85
2017-12-28T09:38:04.075Z,11.52
2017-12-28T09:40:30.348Z,10.98
2017-12-28T09:42:56.816Z,10.73
2017-12-28T09:45:23.166Z,12.20
2017-12-28T09:47:50.397Z,13.23
2017-12-28T09:50:16.696Z,12.68
2017-12-28T09:52:42.953Z,13.40
2017-12-28T09:55:09.197Z,13.27
2017-12-28T09:57:35.451Z,12.30
2017-12-28T10:00:01.694Z,12.93
2017-12-28T10:02:27.950Z,12.93
2017-12-28T10:04:54.993Z,13.52
2017-12-28T10:07:21.244Z,13.38
2017-12-28T10:09:47.481Z,12.88
2017-12-28T10:12:13.721Z,13.13
2017-12-28T10:14:39.961Z,11.95
2017-12-28T10:17:06.269Z,10.55
2017-12-28T10:19:32.493Z,11.77
2017-12-28T10:21:59.464Z,11.35
2017-12-28T10:24:25.729Z,11.10
2017-12-28T10:26:52.112Z,12.23
2017-12-28T10:29:19.084Z,11.95
2017-12-28T10:31:45.359Z,12.25
2017-12-28T10:34:11.610Z,11.88
2017-12-28T10:36:38.932Z,11.27
2017-12-28T10:39:05.897Z,11.30
2017-12-28T10:41:35.233Z,10.45
2017-12-28T10:44:01.481Z,11.55
2017-12-28T10:46:27.749Z,10.30
2017-12-28T10:48:53.997Z,10.35
2017-12-28T10:51:21.013Z,11.35
2017-12-28T10:53:47.958Z,11.25
2017-12-28T10:56:14.345Z,9.10
2017-12-28T10:58:40.693Z,9.52
2017-12-28T11:01:06.973Z,8.70
2017-12-28T11:03:34.029Z,7.72
2017-12-28T11:06:01.366Z,7.60
2017-12-28T11:08:27.620Z,7.87
2017-12-28T11:10:53.863Z,6.40
2017-12-28T11:13:20.110Z,7.00
2017-12-28T11:15:46.425Z,7.85
2017-12-28T11:18:12.650Z,7.75
2017-12-28T11:20:38.885Z,9.30
2017-12-28T11:23:05.417Z,8.50
2017-12-28T11:25:32.380Z,8.05
2017-12-28T11:27:58.646Z,9.50
2017-12-28T11:30:24.900Z,9.07
2017-12-28T11:32:51.147Z,7.37
2017-12-28T11:35:17.389Z,8.25
2017-12-28T11:37:44.374Z,7.30
2017-12-28T11:40:11.360Z,7.72
2017-12-28T11:42:37.604Z,7.10
2017-12-28T11:45:03.859Z,6.95
2017-12-28T11:47:32.382Z,6.87
2017-12-28T11:50:03.342Z,6.50
2017-12-28T11:52:32.608Z,7.57
2017-12-28T11:55:03.546Z,7.20
2017-12-28T11:57:29.790Z,6.72
2017-12-28T11:59:56.060Z,7.85
2017-12-28T12:02:28.526Z,5.80
2017-12-28T12:04:54.795Z,6.03
2017-12-28T12:07:27.183Z,5.80
2017-12-28T12:09:57.846Z,6.37
2017-12-28T12:12:25.112Z,5.85
2017-12-28T12:14:51.339Z,5.65
2017-12-28T12:17:17.604Z,5.93
2017-12-28T12:19:43.874Z,4.78
2017-12-28T12:22:10.200Z,5.25
2017-12-28T12:24:36.527Z,5.22
2017-12-28T12:27:02.797Z,5.25
2017-12-28T12:29:29.810Z,4.03
2017-12-28T12:31:56.190Z,4.10
2017-12-28T12:34:22.508Z,4.00
2017-12-28T12:36:50.591Z,6.78
2017-12-28T12:39:16.986Z,3.90
2017-12-28T12:41:43.245Z,5.70
2017-12-28T12:44:09.602Z,7.62
2017-12-28T12:46:36.381Z,6.12
2017-12-28T12:49:02.625Z,7.85
2017-12-28T12:51:28.877Z,5.50
2017-12-28T12:53:55.155Z,4.37
2017-12-28T12:56:21.532Z,4.87
2017-12-28T12:58:47.778Z,4.95
2017-12-28T13:01:14.009Z,6.37
2017-12-28T13:03:40.248Z,6.68
2017-12-28T13:06:06.539Z,5.12
2017-12-28T13:08:32.845Z,5.25
2017-12-28T13:10:59.088Z,5.60
2017-12-28T13:13:25.344Z,5.53
2017-12-28T13:15:51.717Z,6.43
2017-12-28T13:18:18.750Z,5.60
2017-12-28T13:20:45.016Z,5.65
2017-12-28T13:23:12.086Z,6.03
2017-12-28T13:25:39.122Z,7.00
2017-12-28T13:28:05.352Z,5.28
2017-12-28T13:30:31.769Z,3.97
2017-12-28T13:32:58.127Z,4.00
2017-12-28T13:35:24.429Z,4.15
2017-12-28T13:37:50.796Z,3.80
2017-12-28T13:40:17.761Z,4.80
2017-12-28T13:42:44.076Z,4.07
2017-12-28T13:45:11.210Z,4.75
2017-12-28T13:47:37.462Z,4.78
2017-12-28T13:50:03.780Z,4.90
2017-12-28T13:52:30.847Z,4.80
2017-12-28T13:54:57.136Z,3.80
2017-12-28T13:57:24.181Z,4.45
2017-12-28T13:59:51.236Z,4.45
2017-12-28T14:02:18.264Z,4.30
2017-12-28T14:04:45.357Z,3.62
2017-12-28T14:07:12.361Z,4.00
2017-12-28T14:09:38.653Z,3.53
2017-12-28T14:12:04.883Z,3.50
2017-12-28T14:14:31.197Z,3.70
2017-12-28T14:16:58.510Z,3.97
2017-12-28T14:19:24.852Z,4.00
2017-12-28T14:21:51.094Z,4.45
2017-12-28T14:24:17.424Z,3.67
2017-12-28T14:26:43.857Z,3.47
2017-12-28T14:29:10.061Z,4.60
2017-12-28T14:31:36.282Z,6.65
2017-12-28T14:34:02.543Z,5.15
2017-12-28T14:36:28.825Z,3.42
2017-12-28T14:38:55.344Z,4.22
2017-12-28T14:41:22.393Z,4.72
2017-12-28T14:43:48.675Z,4.47
2017-12-28T14:46:14.921Z,5.15
2017-12-28T14:48:41.172Z,4.40
2017-12-28T14:51:07.839Z,4.32
2017-12-28T14:53:34.817Z,4.30
2017-12-28T14:56:01.072Z,4.00
2017-12-28T14:58:27.297Z,5.03
2017-12-28T15:01:03.104Z,4.18
2017-12-28T15:03:30.150Z,4.28
2017-12-28T15:05:56.234Z,3.90
2017-12-28T15:08:23.104Z,4.45
2017-12-28T15:10:49.180Z,4.40
2017-12-28T15:13:15.285Z,4.28
2017-12-28T15:15:41.355Z,4.90
2017-12-28T15:18:07.427Z,6.10
2017-12-28T15:20:34.211Z,5.97
2017-12-28T15:23:00.287Z,5.35
2017-12-28T15:25:26.361Z,5.35
2017-12-28T15:27:52.513Z,5.80
2017-12-28T15:30:18.577Z,5.60
2017-12-28T15:32:44.780Z,7.47
2017-12-28T15:35:10.915Z,7.05
2017-12-28T15:37:37.709Z,7.93
2017-12-28T15:40:04.401Z,6.70
2017-12-28T15:42:31.278Z,6.90
2017-12-28T15:44:58.141Z,6.75
2017-12-28T15:47:24.196Z,6.60
2017-12-28T15:49:50.325Z,7.65
2017-12-28T15:52:16.429Z,6.93
2017-12-28T15:54:42.480Z,7.32
2017-12-28T15:57:09.332Z,6.55
2017-12-28T15:59:36.188Z,6.70
2017-12-28T16:02:02.985Z,5.78
2017-12-28T16:04:29.164Z,6.20
2017-12-28T16:06:55.240Z,6.57
2017-12-28T16:09:21.299Z,5.85
2017-12-28T16:11:47.415Z,6.60
2017-12-28T16:14:13.534Z,5.68
2017-12-28T16:16:40.334Z,5.10
2017-12-28T16:19:06.398Z,6.93
2017-12-28T16:21:32.452Z,7.07
2017-12-28T16:23:58.489Z,6.65
2017-12-28T16:26:24.542Z,7.62
2017-12-28T16:28:50.848Z,7.15
2017-12-28T16:31:17.103Z,5.65
2017-12-28T16:33:43.334Z,6.05
2017-12-28T16:36:09.568Z,7.20
2017-12-28T16:38:36.937Z,5.57
2017-12-28T16:41:03.381Z,8.05
2017-12-28T16:43:29.786Z,6.90
2017-12-28T16:45:56.081Z,7.00
2017-12-28T16:48:22.325Z,7.60
2017-12-28T16:50:48.600Z,9.07
2017-12-28T16:53:15.043Z,9.30
2017-12-28T16:55:41.511Z,8.48
2017-12-28T16:58:07.843Z,8.10
2017-12-28T17:00:34.846Z,8.02
2017-12-28T17:03:01.119Z,8.00
2017-12-28T17:05:27.343Z,7.85
2017-12-28T17:07:54.325Z,7.93
2017-12-28T17:10:21.304Z,5.80
2017-12-28T17:12:47.597Z,7.00
2017-12-28T17:15:14.408Z,7.60
2017-12-28T17:17:41.742Z,7.53
2017-12-28T17:20:08.728Z,8.55
2017-12-28T17:22:34.997Z,6.57
2017-12-28T17:25:01.281Z,7.05
2017-12-28T17:27:29.393Z,7.20
2017-12-28T17:29:59.126Z,7.80
2017-12-28T17:32:25.182Z,7.43
2017-12-28T17:34:51.394Z,8.73
2017-12-28T17:37:17.489Z,7.75
2017-12-28T17:39:44.277Z,7.93
2017-12-28T17:42:10.434Z,6.68
2017-12-28T17:44:36.538Z,8.55
2017-12-28T17:47:02.597Z,7.22
2017-12-28T17:49:29.401Z,8.05
2017-12-28T17:51:57.364Z,7.80
2017-12-28T17:54:23.422Z,9.10
2017-12-28T17:56:50.284Z,7.62
2017-12-28T17:59:17.077Z,8.40
2017-12-28T18:01:43.172Z,7.53
2017-12-28T18:04:09.306Z,8.80
2017-12-28T18:06:35.489Z,8.30
2017-12-28T18:09:01.574Z,7.85
2017-12-28T18:11:27.822Z,9.00
2017-12-28T18:13:53.958Z,7.80
2017-12-28T18:16:20.134Z,8.18
2017-12-28T18:18:46.444Z,8.05
2017-12-28T18:21:12.798Z,7.62
2017-12-28T18:23:40.561Z,8.73
2017-12-28T18:26:07.700Z,11.38
2017-12-28T18:28:34.758Z,8.20
2017-12-28T18:31:01.881Z,8.73
2017-12-28T18:33:28.042Z,7.40
2017-12-28T18:35:54.083Z,8.77
2017-12-28T18:38:20.945Z,9.35
2017-12-28T18:40:47.008Z,11.15
2017-12-28T18:43:13.913Z,9.40
2017-12-28T18:45:39.997Z,11.88
2017-12-28T18:48:06.045Z,11.15
2017-12-28T18:50:32.914Z,11.23
2017-12-28T18:52:59.743Z,10.00
2017-12-28T18:55:25.792Z,10.57
2017-12-28T18:57:51.946Z,9.60
2017-12-28T19:00:18.977Z,9.00
2017-12-28T19:02:45.064Z,10.73
2017-12-28T19:05:11.318Z,10.57
2017-12-28T19:07:37.671Z,11.82
2017-12-28T19:10:03.943Z,9.15
2017-12-28T19:12:30.223Z,9.85
2017-12-28T19:14:57.208Z,10.05
2017-12-28T19:17:23.299Z,9.55
2017-12-28T19:19:49.599Z,9.70
2017-12-28T19:22:15.860Z,13.50
2017-12-28T19:24:42.109Z,10.20
2017-12-28T19:27:08.376Z,8.73
2017-12-28T19:29:35.409Z,8.90
2017-12-28T19:32:02.454Z,10.05
2017-12-28T19:34:28.714Z,10.52
2017-12-28T19:36:54.966Z,9.43
2017-12-28T19:39:21.213Z,8.70
2017-12-28T19:41:48.250Z,10.70
2017-12-28T19:44:15.435Z,10.05
2017-12-28T19:46:42.457Z,10.30
2017-12-28T19:49:09.764Z,9.32
2017-12-28T19:51:36.793Z,10.25
2017-12-28T19:54:03.060Z,10.40
2017-12-28T19:56:30.093Z,11.55
2017-12-28T19:58:56.395Z,11.55
2017-12-28T20:01:23.475Z,11.70
2017-12-28T20:03:49.770Z,10.55
2017-12-28T20:06:16.801Z,9.75
2017-12-28T20:08:43.487Z,9.48
2017-12-28T20:11:10.553Z,9.43
2017-12-28T20:13:37.536Z,8.75
2017-12-28T20:16:04.519Z,9.50
2017-12-28T20:18:30.753Z,8.43
2017-12-28T20:20:57.034Z,8.48
2017-12-28T20:23:23.303Z,7.37
2017-12-28T20:25:50.357Z,7.80
2017-12-28T20:28:17.083Z,8.63
2017-12-28T20:30:44.145Z,9.80
2017-12-28T20:33:12.454Z,8.02
2017-12-28T20:35:39.447Z,9.23
2017-12-28T20:38:05.839Z,8.75
2017-12-28T20:40:32.099Z,7.20
2017-12-28T20:42:59.969Z,8.70
2017-12-28T20:45:26.957Z,7.93
2017-12-28T20:47:53.181Z,8.05
2017-12-28T20:50:19.441Z,8.40
2017-12-28T20:52:45.677Z,7.75
2017-12-28T20:55:11.969Z,9.20
2017-12-28T20:57:38.247Z,8.80
2017-12-28T21:00:05.213Z,8.07
2017-12-28T21:02:31.597Z,8.48
2017-12-28T21:04:57.903Z,8.98
2017-12-28T21:07:25.136Z,9.60
2017-12-28T21:09:51.500Z,10.35
2017-12-28T21:12:17.781Z,7.85
2017-12-28T21:14:44.063Z,7.32
2017-12-28T21:17:11.071Z,7.28
2017-12-28T21:19:37.414Z,8.40
2017-12-28T21:22:03.681Z,6.70
2017-12-28T21:24:29.995Z,7.97
2017-12-28T21:26:56.956Z,8.27
2017-12-28T21:29:23.212Z,9.25
2017-12-28T21:31:49.476Z,9.98
2017-12-28T21:34:15.724Z,10.25
2017-12-28T21:36:41.961Z,8.77
2017-12-28T21:39:08.214Z,9.65
2017-12-28T21:41:34.453Z,11.77
2017-12-28T21:44:00.739Z,9.38
2017-12-28T21:46:27.710Z,9.35
2017-12-28T21:48:53.937Z,9.02
2017-12-28T21:51:20.189Z,9.45
2017-12-28T21:53:46.457Z,8.38
2017-12-28T21:56:12.741Z,8.18
2017-12-28T21:58:38.981Z,7.70
2017-12-28T22:01:05.850Z,7.87
2017-12-28T22:03:32.126Z,8.10
2017-12-28T22:05:58.472Z,8.60
2017-12-28T22:08:24.705Z,9.25
2017-12-28T22:10:51.008Z,8.05
2017-12-28T22:13:17.350Z,9.55
2017-12-28T22:15:44.397Z,8.25
2017-12-28T22:18:11.394Z,9.65
2017-12-28T22:20:37.661Z,9.32
2017-12-28T22:23:04.224Z,8.57
2017-12-28T22:25:30.436Z,6.97
2017-12-28T22:27:56.728Z,7.32
2017-12-28T22:30:22.977Z,7.43
2017-12-28T22:32:49.383Z,7.10
2017-12-28T22:35:15.610Z,8.07
2017-12-28T22:37:41.857Z,7.37
2017-12-28T22:40:08.097Z,7.32
2017-12-28T22:42:34.754Z,8.10
2017-12-28T22:45:01.001Z,6.68
2017-12-28T22:47:27.210Z,8.00
2017-12-28T22:49:53.560Z,8.07
2017-12-28T22:52:19.854Z,7.53
2017-12-28T22:54:46.872Z,7.70
2017-12-28T22:57:13.106Z,7.68
2017-12-28T22:59:39.381Z,7.05
2017-12-28T23:02:05.648Z,9.02
2017-12-28T23:04:33.128Z,9.98
2017-12-28T23:06:59.394Z,8.75
2017-12-28T23:09:25.633Z,6.95
2017-12-28T23:11:51.886Z,8.55
2017-12-28T23:14:18.167Z,7.80
2017-12-28T23:16:45.204Z,6.62
2017-12-28T23:19:11.477Z,6.22
2017-12-28T23:21:37.733Z,6.55
2017-12-28T23:24:04.003Z,6.78
2017-12-28T23:26:30.241Z,6.53
2017-12-28T23:28:56.546Z,6.65
2017-12-28T23:31:23.557Z,6.28
2017-12-28T23:33:49.774Z,6.00
2017-12-28T23:36:16.027Z,6.15
2017-12-28T23:38:42.269Z,7.97
2017-12-28T23:41:09.336Z,6.40
2017-12-28T23:43:35.628Z,6.53
2017-12-28T23:46:02.612Z,5.70
2017-12-28T23:48:30.664Z,5.78
2017-12-28T23:50:57.708Z,6.32
2017-12-28T23:53:23.925Z,6.90
2017-12-28T23:55:50.213Z,6.50
2017-12-28T23:58:17.245Z,5.60
